createdAt,value
2019-01-26T00:00:44.743Z,31.45
2019-01-26T00:03:15.498Z,33.42
2019-01-26T00:05:47.342Z,34.20
2019-01-26T00:08:18.407Z,32.78
2019-01-26T00:10:49.328Z,33.02
2019-01-26T00:13:20.346Z,33.30
2019-01-26T00:15:51.171Z,35.37
2019-01-26T00:18:22.295Z,34.67
2019-01-26T00:20:53.083Z,36.07
2019-01-26T00:23:24.140Z,35.03
2019-01-26T00:25:55.266Z,34.87
2019-01-26T00:28:26.079Z,36.68
2019-01-26T00:30:57.295Z,37.53
2019-01-26T00:33:28.343Z,36.53
2019-01-26T00:35:59.404Z,38.78
2019-01-26T00:38:30.454Z,39.50
2019-01-26T00:41:01.590Z,41.20
2019-01-26T00:43:32.398Z,43.08
2019-01-26T00:46:03.593Z,46.08
2019-01-26T00:48:34.694Z,47.30
2019-01-26T00:51:05.586Z,45.20
2019-01-26T00:53:36.391Z,48.07
2019-01-26T00:56:07.228Z,46.05
2019-01-26T00:58:38.011Z,48.23
2019-01-26T01:01:09.262Z,49.95
2019-01-26T01:03:40.290Z,51.67
2019-01-26T01:06:11.289Z,52.00
2019-01-26T01:08:42.286Z,53.07
2019-01-26T01:11:13.472Z,51.60
2019-01-26T01:13:44.347Z,55.30
2019-01-26T01:16:15.113Z,53.60
2019-01-26T01:18:45.886Z,58.13
2019-01-26T01:21:16.696Z,59.42
2019-01-26T01:23:47.507Z,58.60
2019-01-26T01:26:18.675Z,57.53
2019-01-26T01:28:49.407Z,58.90
2019-01-26T01:31:20.304Z,62.93
2019-01-26T01:33:51.411Z,62.62
2019-01-26T01:36:22.943Z,64.15
2019-01-26T01:38:53.996Z,63.95
2019-01-26T01:41:25.125Z,71.33
2019-01-26T01:43:55.990Z,69.25
2019-01-26T01:46:26.738Z,66.75
2019-01-26T01:48:57.787Z,70.08
2019-01-26T01:51:28.903Z,71.80
2019-01-26T01:53:59.791Z,72.27
2019-01-26T01:56:31.558Z,72.42
2019-01-26T01:59:02.640Z,69.25
2019-01-26T02:01:34.110Z,69.15
2019-01-26T02:04:05.067Z,63.03
2019-01-26T02:06:35.800Z,65.42
2019-01-26T02:09:08.768Z,62.13
2019-01-26T02:11:39.679Z,67.58
2019-01-26T02:14:10.815Z,65.67
2019-01-26T02:16:41.531Z,66.42
2019-01-26T02:19:12.922Z,64.40
2019-01-26T02:21:43.760Z,65.62
2019-01-26T02:24:16.255Z,64.30
2019-01-26T02:26:46.980Z,64.32
2019-01-26T02:29:17.703Z,66.57
2019-01-26T02:31:48.398Z,63.98
2019-01-26T02:34:19.299Z,68.57
2019-01-26T02:36:50.091Z,71.47
2019-01-26T02:39:20.832Z,71.12
2019-01-26T02:41:51.590Z,69.50
2019-01-26T02:44:22.589Z,76.90
2019-01-26T02:46:57.939Z,74.37
2019-01-26T02:49:26.441Z,74.20
2019-01-26T02:51:57.156Z,74.92
2019-01-26T02:54:28.188Z,76.65
2019-01-26T02:56:58.910Z,78.33
2019-01-26T02:59:29.647Z,74.97
2019-01-26T03:02:00.415Z,76.47
2019-01-26T03:04:31.498Z,73.72
2019-01-26T03:07:02.666Z,76.65
2019-01-26T03:09:33.786Z,77.50
2019-01-26T03:12:04.996Z,72.67
2019-01-26T03:14:36.787Z,72.15
2019-01-26T03:17:08.022Z,71.50
2019-01-26T03:19:38.827Z,74.15
2019-01-26T03:22:09.942Z,70.70
2019-01-26T03:24:40.762Z,65.87
2019-01-26T03:27:11.667Z,67.75
2019-01-26T03:29:42.410Z,69.65
2019-01-26T03:32:13.115Z,64.25
2019-01-26T03:34:43.855Z,70.62
2019-01-26T03:37:14.570Z,69.10
2019-01-26T03:39:45.608Z,68.95
2019-01-26T03:42:16.319Z,63.68
2019-01-26T03:44:47.083Z,65.70
2019-01-26T03:47:17.772Z,66.10
2019-01-26T03:49:48.938Z,65.12
2019-01-26T03:52:19.797Z,66.65
2019-01-26T03:54:50.848Z,64.73
2019-01-26T03:57:21.582Z,64.23
2019-01-26T03:59:52.341Z,66.37
2019-01-26T04:02:23.266Z,69.62
2019-01-26T04:04:54.471Z,67.62
2019-01-26T04:07:25.278Z,76.53
2019-01-26T04:09:56.036Z,73.10
2019-01-26T04:12:26.774Z,75.92
2019-01-26T04:14:57.475Z,78.30
2019-01-26T04:17:28.367Z,82.20
2019-01-26T04:19:59.460Z,76.53
2019-01-26T04:22:30.211Z,83.65
2019-01-26T04:25:01.296Z,88.07
2019-01-26T04:27:32.335Z,84.00
2019-01-26T04:30:03.266Z,89.62
2019-01-26T04:32:34.934Z,85.17
2019-01-26T04:35:06.287Z,83.85
2019-01-26T04:37:37.112Z,90.80
2019-01-26T04:40:10.634Z,92.88
2019-01-26T04:42:41.747Z,92.78
2019-01-26T04:45:18.043Z,95.05
2019-01-26T04:47:49.047Z,93.42
2019-01-26T04:50:20.246Z,97.12
2019-01-26T04:52:51.349Z,97.37
2019-01-26T04:55:22.479Z,93.93
2019-01-26T04:57:53.201Z,93.47
2019-01-26T05:00:26.874Z,91.73
2019-01-26T05:02:57.706Z,102.70
2019-01-26T05:05:28.577Z,95.75
2019-01-26T05:07:59.616Z,97.45
2019-01-26T05:10:30.390Z,94.60
2019-01-26T05:13:01.119Z,95.83
2019-01-26T05:15:31.946Z,92.53
2019-01-26T05:18:03.013Z,96.80
2019-01-26T05:20:33.735Z,98.72
2019-01-26T05:23:04.631Z,95.15
2019-01-26T05:25:35.638Z,94.58
2019-01-26T05:28:06.606Z,93.52
2019-01-26T05:30:37.414Z,92.67
2019-01-26T05:33:08.619Z,91.92
2019-01-26T05:35:39.490Z,95.72
2019-01-26T05:38:10.290Z,91.30
2019-01-26T05:40:41.006Z,94.52
2019-01-26T05:43:11.750Z,91.47
2019-01-26T05:45:42.795Z,92.97
2019-01-26T05:48:13.847Z,94.22
2019-01-26T05:50:44.636Z,89.80
2019-01-26T05:53:15.464Z,85.40
2019-01-26T05:55:47.085Z,92.22
2019-01-26T05:58:18.215Z,87.65
2019-01-26T06:00:49.014Z,89.65
2019-01-26T06:03:20.071Z,98.42
2019-01-26T06:05:50.964Z,90.90
2019-01-26T06:08:22.255Z,85.85
2019-01-26T06:10:53.232Z,85.55
2019-01-26T06:13:24.233Z,90.87
2019-01-26T06:15:54.963Z,85.92
2019-01-26T06:18:25.684Z,86.25
2019-01-26T06:20:56.418Z,80.17
2019-01-26T06:23:27.455Z,84.55
2019-01-26T06:25:58.193Z,87.78
2019-01-26T06:28:28.977Z,86.80
2019-01-26T06:30:59.994Z,83.90
2019-01-26T06:33:31.058Z,80.22
2019-01-26T06:36:01.767Z,77.95
2019-01-26T06:38:32.502Z,83.95
2019-01-26T06:41:03.553Z,81.17
2019-01-26T06:43:34.522Z,82.35
2019-01-26T06:46:05.314Z,78.22
2019-01-26T06:48:36.107Z,78.97
2019-01-26T06:51:06.855Z,78.70
2019-01-26T06:53:37.593Z,75.80
2019-01-26T06:56:08.430Z,75.10
2019-01-26T06:58:39.161Z,73.62
2019-01-26T07:01:09.978Z,76.17
2019-01-26T07:03:40.713Z,72.08
2019-01-26T07:06:24.411Z,69.97
2019-01-26T07:08:55.108Z,68.97
2019-01-26T07:11:25.935Z,68.30
2019-01-26T07:13:56.696Z,70.80
2019-01-26T07:16:27.568Z,66.05
2019-01-26T07:18:58.371Z,66.45
2019-01-26T07:21:29.219Z,64.30
2019-01-26T07:23:59.947Z,67.67
2019-01-26T07:26:31.023Z,65.70
2019-01-26T07:29:02.432Z,70.62
2019-01-26T07:31:33.183Z,63.40
2019-01-26T07:34:04.324Z,66.05
2019-01-26T07:36:35.394Z,63.48
2019-01-26T07:39:08.867Z,65.70
2019-01-26T07:41:39.613Z,68.25
2019-01-26T07:44:11.344Z,67.00
2019-01-26T07:46:42.071Z,70.62
2019-01-26T07:49:12.778Z,67.87
2019-01-26T07:51:43.577Z,70.87
2019-01-26T07:54:14.362Z,68.72
2019-01-26T07:56:45.325Z,68.02
2019-01-26T07:59:16.055Z,65.70
2019-01-26T08:01:46.787Z,65.75
2019-01-26T08:04:21.173Z,69.00
2019-01-26T08:06:51.978Z,67.40
2019-01-26T08:09:22.810Z,62.17
2019-01-26T08:11:53.734Z,63.50
2019-01-26T08:14:24.599Z,63.23
2019-01-26T08:16:55.295Z,54.95
2019-01-26T08:19:26.040Z,56.80
2019-01-26T08:21:56.763Z,55.55
2019-01-26T08:24:28.151Z,54.67
2019-01-26T08:26:58.879Z,51.92
2019-01-26T08:29:29.622Z,52.95
2019-01-26T08:32:00.319Z,53.80
2019-01-26T08:34:31.087Z,48.63
2019-01-26T08:37:01.802Z,50.70
2019-01-26T08:39:45.301Z,49.20
2019-01-26T08:42:16.066Z,49.80
2019-01-26T08:44:47.047Z,47.30
2019-01-26T08:47:18.046Z,48.98
2019-01-26T08:49:48.862Z,47.65
2019-01-26T08:52:19.569Z,46.95
2019-01-26T08:54:50.646Z,46.28
2019-01-26T08:57:21.519Z,47.88
2019-01-26T08:59:52.280Z,45.95
2019-01-26T09:02:41.184Z,44.13
2019-01-26T09:05:13.464Z,44.03
2019-01-26T09:07:44.339Z,43.63
2019-01-26T09:10:15.440Z,42.98
2019-01-26T09:12:46.870Z,42.78
2019-01-26T09:15:18.079Z,39.65
2019-01-26T09:17:48.957Z,40.12
2019-01-26T09:20:20.124Z,40.25
2019-01-26T09:22:50.968Z,40.70
2019-01-26T09:25:22.128Z,38.15
2019-01-26T09:27:53.098Z,39.33
2019-01-26T09:30:24.014Z,36.43
2019-01-26T09:32:55.229Z,33.70
2019-01-26T09:35:26.038Z,37.30
2019-01-26T09:37:56.880Z,36.03
2019-01-26T09:40:27.850Z,36.00
2019-01-26T09:42:58.603Z,39.23
2019-01-26T09:45:29.535Z,35.00
2019-01-26T09:48:00.718Z,34.50
2019-01-26T09:50:31.595Z,33.38
2019-01-26T09:53:02.738Z,32.90
2019-01-26T09:55:33.567Z,31.75
2019-01-26T09:58:04.769Z,34.48
2019-01-26T10:00:37.360Z,33.45
2019-01-26T10:03:08.070Z,34.27
2019-01-26T10:05:39.290Z,33.33
2019-01-26T10:08:10.484Z,33.10
2019-01-26T10:10:41.311Z,34.18
2019-01-26T10:13:12.336Z,34.15
2019-01-26T10:15:43.139Z,31.42
2019-01-26T10:18:14.537Z,32.98
2019-01-26T10:20:45.411Z,34.43
2019-01-26T10:23:16.859Z,32.75
2019-01-26T10:25:48.784Z,30.50
2019-01-26T10:28:19.997Z,30.97
2019-01-26T10:30:57.927Z,29.48
2019-01-26T10:33:28.692Z,32.20
2019-01-26T10:36:19.819Z,28.62
2019-01-26T10:39:00.487Z,28.57
2019-01-26T10:41:50.728Z,29.48
2019-01-26T10:44:27.536Z,29.80
2019-01-26T10:46:58.452Z,28.73
2019-01-26T10:49:29.201Z,26.35
2019-01-26T10:52:00.130Z,26.50
2019-01-26T10:54:31.079Z,26.73
2019-01-26T10:57:01.915Z,26.05
2019-01-26T10:59:32.715Z,24.13
2019-01-26T11:02:03.583Z,26.12
2019-01-26T11:04:34.423Z,26.37
2019-01-26T11:07:05.430Z,25.55
2019-01-26T11:09:36.537Z,25.62
2019-01-26T11:12:07.422Z,26.12
2019-01-26T11:14:38.164Z,26.48
2019-01-26T11:17:09.244Z,27.10
2019-01-26T11:19:40.009Z,27.17
2019-01-26T11:22:11.071Z,26.40
2019-01-26T11:24:42.128Z,27.50
2019-01-26T11:27:12.925Z,27.57
2019-01-26T11:29:43.644Z,27.30
2019-01-26T11:32:14.577Z,27.58
2019-01-26T11:34:45.380Z,26.68
2019-01-26T11:37:16.178Z,27.13
2019-01-26T11:39:52.408Z,26.85
2019-01-26T11:42:23.570Z,27.15
2019-01-26T11:45:12.538Z,29.00
2019-01-26T11:47:43.298Z,26.37
2019-01-26T11:50:19.541Z,28.20
2019-01-26T11:52:50.296Z,28.87
2019-01-26T11:55:29.640Z,25.24
2019-01-26T11:58:00.474Z,24.65
2019-01-26T12:00:50.480Z,25.48
2019-01-26T12:03:41.629Z,23.12
2019-01-26T12:06:20.591Z,23.13
2019-01-26T12:08:51.498Z,25.52
2019-01-26T12:11:22.325Z,23.57
2019-01-26T12:13:53.172Z,21.70
2019-01-26T12:16:27.064Z,23.85
2019-01-26T12:18:57.317Z,20.75
2019-01-26T12:21:28.320Z,20.32
2019-01-26T12:23:59.390Z,20.23
2019-01-26T12:26:31.109Z,22.27
2019-01-26T12:29:01.927Z,22.35
2019-01-26T12:31:33.107Z,20.55
2019-01-26T12:34:04.071Z,19.47
2019-01-26T12:36:36.034Z,20.97
2019-01-26T12:39:10.047Z,19.42
2019-01-26T12:41:40.837Z,17.17
2019-01-26T12:44:11.763Z,17.48
2019-01-26T12:46:42.595Z,17.02
2019-01-26T12:49:13.448Z,16.60
2019-01-26T12:51:44.342Z,16.07
2019-01-26T12:54:15.248Z,17.95
2019-01-26T12:56:46.228Z,14.63
2019-01-26T12:59:17.140Z,15.32
2019-01-26T13:01:47.974Z,14.78
2019-01-26T13:04:20.037Z,16.05
2019-01-26T13:06:51.276Z,15.35
2019-01-26T13:09:24.325Z,16.02
2019-01-26T13:11:55.231Z,15.35
2019-01-26T13:14:29.096Z,16.25
2019-01-26T13:17:00.244Z,16.35
2019-01-26T13:19:36.847Z,13.95
2019-01-26T13:22:04.071Z,15.30
2019-01-26T13:24:35.492Z,14.07
2019-01-26T13:27:06.429Z,13.28
2019-01-26T13:29:37.648Z,13.50
2019-01-26T13:32:08.578Z,11.78
2019-01-26T13:34:40.029Z,12.37
2019-01-26T13:37:10.928Z,12.18
2019-01-26T13:39:41.750Z,11.22
2019-01-26T13:42:12.647Z,10.82
2019-01-26T13:44:43.515Z,10.33
2019-01-26T13:47:14.501Z,10.18
2019-01-26T13:49:45.312Z,10.28
2019-01-26T13:52:16.145Z,9.93
2019-01-26T13:54:46.995Z,9.35
2019-01-26T13:57:17.877Z,9.63
2019-01-26T13:59:48.777Z,9.70
2019-01-26T14:02:19.723Z,8.23
2019-01-26T14:04:50.536Z,10.43
2019-01-26T14:07:21.698Z,8.10
2019-01-26T14:09:52.531Z,7.50
2019-01-26T14:12:23.317Z,8.13
2019-01-26T14:14:54.062Z,7.75
2019-01-26T14:17:25.804Z,8.35
2019-01-26T14:19:56.644Z,8.83
2019-01-26T14:22:27.507Z,7.83
2019-01-26T14:24:58.400Z,8.53
2019-01-26T14:27:29.192Z,8.88
2019-01-26T14:30:00.004Z,9.30
2019-01-26T14:32:30.851Z,9.25
2019-01-26T14:35:01.700Z,9.43
2019-01-26T14:37:32.525Z,8.48
2019-01-26T14:40:03.460Z,9.35
2019-01-26T14:42:34.425Z,10.60
2019-01-26T14:45:06.989Z,10.00
2019-01-26T14:47:39.129Z,10.98
2019-01-26T14:50:11.328Z,10.23
2019-01-26T14:52:42.218Z,10.30
2019-01-26T14:55:15.886Z,10.03
2019-01-26T14:57:46.759Z,9.80
2019-01-26T15:00:28.729Z,9.68
2019-01-26T15:02:59.575Z,10.05
2019-01-26T15:05:30.758Z,8.95
2019-01-26T15:08:02.214Z,9.83
2019-01-26T15:10:33.132Z,9.07
2019-01-26T15:13:05.360Z,9.30
2019-01-26T15:15:36.246Z,9.33
2019-01-26T15:18:07.027Z,9.30
2019-01-26T15:20:39.808Z,9.98
2019-01-26T15:23:14.597Z,9.63
2019-01-26T15:25:45.730Z,10.20
2019-01-26T15:28:16.611Z,10.10
2019-01-26T15:30:47.468Z,9.60
2019-01-26T15:33:18.348Z,8.83
2019-01-26T15:35:49.162Z,9.10
2019-01-26T15:38:19.999Z,8.03
2019-01-26T15:40:50.809Z,7.62
2019-01-26T15:43:21.714Z,7.25
2019-01-26T15:45:52.462Z,6.30
2019-01-26T15:48:23.330Z,6.60
2019-01-26T15:50:54.165Z,6.40
2019-01-26T15:53:25.037Z,7.08
2019-01-26T15:55:56.101Z,6.90
2019-01-26T15:58:27.024Z,6.70
2019-01-26T16:00:57.918Z,6.20
2019-01-26T16:03:28.739Z,6.22
2019-01-26T16:05:59.852Z,8.48
2019-01-26T16:08:30.607Z,6.00
2019-01-26T16:11:01.372Z,7.22
2019-01-26T16:13:32.145Z,6.17
2019-01-26T16:16:02.965Z,6.00
2019-01-26T16:18:33.836Z,6.00
2019-01-26T16:21:04.794Z,8.08
2019-01-26T16:23:35.640Z,6.75
2019-01-26T16:26:06.915Z,6.87
2019-01-26T16:28:38.050Z,6.45
2019-01-26T16:31:09.208Z,5.67
2019-01-26T16:33:40.044Z,7.30
2019-01-26T16:36:10.930Z,5.90
2019-01-26T16:38:41.768Z,7.87
2019-01-26T16:41:12.531Z,5.92
2019-01-26T16:43:44.264Z,5.92
2019-01-26T16:46:15.129Z,5.90
2019-01-26T16:48:46.015Z,6.87
2019-01-26T16:51:17.044Z,5.72
2019-01-26T16:53:47.789Z,5.53
2019-01-26T16:56:18.605Z,5.30
2019-01-26T16:58:49.423Z,4.60
2019-01-26T17:01:20.252Z,5.70
2019-01-26T17:03:51.149Z,5.40
2019-01-26T17:06:22.152Z,5.42
2019-01-26T17:08:53.009Z,6.60
2019-01-26T17:11:23.755Z,7.60
2019-01-26T17:13:54.583Z,5.83
2019-01-26T17:16:25.528Z,6.05
2019-01-26T17:18:56.564Z,7.78
2019-01-26T17:21:27.474Z,7.15
2019-01-26T17:23:58.279Z,5.37
2019-01-26T17:26:29.057Z,8.48
2019-01-26T17:28:59.792Z,6.53
2019-01-26T17:31:33.896Z,6.27
2019-01-26T17:34:05.122Z,6.47
2019-01-26T17:36:39.147Z,6.28
2019-01-26T17:39:10.164Z,6.30
2019-01-26T17:41:41.124Z,6.30
2019-01-26T17:44:11.968Z,6.67
2019-01-26T17:46:42.713Z,6.95
2019-01-26T17:49:13.494Z,6.77
2019-01-26T17:51:44.316Z,7.20
2019-01-26T17:54:15.173Z,6.42
2019-01-26T17:56:45.984Z,6.05
2019-01-26T17:59:16.760Z,6.17
2019-01-26T18:01:48.043Z,5.83
2019-01-26T18:04:18.840Z,6.47
2019-01-26T18:06:49.586Z,6.50
2019-01-26T18:09:20.387Z,6.00
2019-01-26T18:11:51.102Z,6.00
2019-01-26T18:14:21.916Z,6.87
2019-01-26T18:16:53.215Z,6.37
2019-01-26T18:19:23.987Z,6.55
2019-01-26T18:21:54.811Z,5.95
2019-01-26T18:24:25.502Z,5.97
2019-01-26T18:26:57.134Z,5.55
2019-01-26T18:29:27.934Z,5.07
2019-01-26T18:31:58.648Z,7.15
2019-01-26T18:34:30.662Z,8.85
2019-01-26T18:37:01.765Z,6.15
2019-01-26T18:39:32.786Z,5.60
2019-01-26T18:42:03.579Z,6.08
2019-01-26T18:44:34.328Z,5.03
2019-01-26T18:47:05.212Z,6.15
2019-01-26T18:49:37.171Z,4.67
2019-01-26T18:52:08.231Z,5.20
2019-01-26T18:54:38.958Z,5.30
2019-01-26T18:57:09.674Z,5.30
2019-01-26T18:59:41.462Z,5.20
2019-01-26T19:02:12.194Z,5.37
2019-01-26T19:04:57.222Z,4.83
2019-01-26T19:07:28.013Z,5.53
2019-01-26T19:09:58.811Z,5.72
2019-01-26T19:12:29.856Z,5.87
2019-01-26T19:15:00.587Z,5.55
2019-01-26T19:17:31.291Z,4.55
2019-01-26T19:20:03.508Z,5.55
2019-01-26T19:22:34.790Z,5.12
2019-01-26T19:25:07.331Z,6.97
2019-01-26T19:27:38.140Z,4.85
2019-01-26T19:30:10.224Z,5.30
2019-01-26T19:32:41.031Z,5.33
2019-01-26T19:35:12.208Z,4.87
2019-01-26T19:37:42.940Z,6.08
2019-01-26T19:40:16.571Z,5.72
2019-01-26T19:42:47.467Z,5.42
2019-01-26T19:45:19.784Z,4.57
2019-01-26T19:47:50.812Z,6.70
2019-01-26T19:50:21.772Z,7.22
2019-01-26T19:52:53.289Z,7.53
2019-01-26T19:55:24.358Z,5.80
2019-01-26T19:57:55.496Z,9.00
2019-01-26T20:00:26.400Z,5.83
2019-01-26T20:02:57.190Z,7.72
2019-01-26T20:05:28.086Z,11.40
2019-01-26T20:07:59.019Z,7.40
2019-01-26T20:10:30.143Z,5.25
2019-01-26T20:13:01.186Z,7.10
2019-01-26T20:15:32.003Z,9.40
2019-01-26T20:18:04.226Z,6.62
2019-01-26T20:20:35.765Z,5.65
2019-01-26T20:23:06.663Z,6.12
2019-01-26T20:25:37.659Z,6.10
2019-01-26T20:28:08.877Z,5.35
2019-01-26T20:30:39.564Z,8.55
2019-01-26T20:33:12.310Z,5.33
2019-01-26T20:35:43.094Z,5.30
2019-01-26T20:38:14.363Z,7.83
2019-01-26T20:40:45.283Z,7.92
2019-01-26T20:43:16.511Z,5.87
2019-01-26T20:45:47.550Z,3.80
2019-01-26T20:48:19.214Z,5.00
2019-01-26T20:50:50.531Z,5.08
2019-01-26T20:53:21.655Z,5.35
2019-01-26T20:55:52.502Z,6.55
2019-01-26T20:58:23.532Z,3.95
2019-01-26T21:00:54.243Z,2.92
2019-01-26T21:03:25.343Z,3.00
2019-01-26T21:05:57.060Z,3.27
2019-01-26T21:08:27.763Z,2.75
2019-01-26T21:10:58.542Z,4.87
2019-01-26T21:13:29.373Z,2.83
2019-01-26T21:16:00.172Z,2.58
2019-01-26T21:18:32.388Z,2.30
2019-01-26T21:21:03.506Z,2.73
2019-01-26T21:23:34.327Z,11.30
2019-01-26T21:26:05.736Z,11.33
2019-01-26T21:28:36.524Z,8.05
2019-01-26T21:31:08.187Z,6.25
2019-01-26T21:33:39.248Z,3.75
2019-01-26T21:36:10.110Z,2.90
2019-01-26T21:38:41.157Z,3.47
2019-01-26T21:41:11.971Z,4.40
2019-01-26T21:43:43.009Z,4.15
2019-01-26T21:46:13.778Z,4.10
2019-01-26T21:48:44.631Z,3.15
2019-01-26T21:51:15.355Z,3.83
2019-01-26T21:53:46.434Z,4.17
2019-01-26T21:56:17.269Z,4.17
2019-01-26T21:58:48.074Z,3.40
2019-01-26T22:01:19.252Z,2.50
2019-01-26T22:03:50.388Z,2.50
2019-01-26T22:06:21.183Z,2.50
2019-01-26T22:08:51.938Z,2.75
2019-01-26T22:11:23.021Z,3.12
2019-01-26T22:13:53.804Z,3.63
2019-01-26T22:16:24.600Z,3.77
2019-01-26T22:18:55.611Z,2.83
2019-01-26T22:21:26.951Z,3.22
2019-01-26T22:23:58.026Z,2.50
2019-01-26T22:26:29.048Z,2.97
2019-01-26T22:29:00.139Z,2.60
2019-01-26T22:31:30.911Z,3.67
2019-01-26T22:34:01.740Z,3.00
2019-01-26T22:36:32.814Z,3.83
2019-01-26T22:39:06.783Z,3.67
2019-01-26T22:41:37.516Z,5.03
2019-01-26T22:44:08.456Z,6.45
2019-01-26T22:46:39.529Z,5.40
2019-01-26T22:49:10.923Z,7.12
2019-01-26T22:51:41.643Z,14.23
2019-01-26T22:54:12.383Z,6.45
2019-01-26T22:56:43.247Z,5.10
2019-01-26T22:59:13.962Z,4.28
2019-01-26T23:01:45.162Z,4.53
2019-01-26T23:04:41.429Z,4.55
2019-01-26T23:07:49.139Z,4.40
2019-01-26T23:10:54.327Z,4.50
2019-01-26T23:13:46.294Z,3.90
2019-01-26T23:16:47.726Z,3.90
2019-01-26T23:19:31.740Z,3.50
2019-01-26T23:22:34.244Z,3.35
2019-01-26T23:25:42.109Z,3.12
2019-01-26T23:28:46.929Z,2.60
2019-01-26T23:31:21.310Z,3.43
2019-01-26T23:33:53.687Z,2.60
2019-01-26T23:36:24.554Z,4.70
2019-01-26T23:39:02.008Z,2.98
2019-01-26T23:41:28.194Z,3.42
2019-01-26T23:43:58.972Z,2.73
2019-01-26T23:46:29.727Z,2.75
2019-01-26T23:49:00.711Z,2.63
2019-01-26T23:51:31.490Z,2.70
2019-01-26T23:54:02.674Z,2.72
2019-01-26T23:56:33.379Z,3.73
2019-01-26T23:59:04.532Z,2.67
